sensor_id;sensor_type;location;lat;lon;timestamp;P1;durP1;ratioP1;P2;durP2;ratioP2
22460;SDS011;11397;48.410;11.468;2023-08-12T00:04:36;3.90;;;3.80;;
22460;SDS011;11397;48.410;11.468;2023-08-12T00:09:39;3.70;;;3.60;;
22460;SDS011;11397;48.410;11.468;2023-08-12T00:14:42;3.97;;;3.88;;
22460;SDS011;11397;48.410;11.468;2023-08-12T00:19:43;4.00;;;3.90;;
22460;SDS011;11397;48.410;11.468;2023-08-12T00:24:45;4.10;;;4.00;;
22460;SDS011;11397;48.410;11.468;2023-08-12T00:29:48;4.10;;;4.00;;
22460;SDS011;11397;48.410;11.468;2023-08-12T00:34:50;4.00;;;3.90;;
22460;SDS011;11397;48.410;11.468;2023-08-12T00:39:52;4.20;;;4.10;;
22460;SDS011;11397;48.410;11.468;2023-08-12T00:44:55;3.97;;;3.88;;
22460;SDS011;11397;48.410;11.468;2023-08-12T00:49:57;3.85;;;3.75;;
22460;SDS011;11397;48.410;11.468;2023-08-12T00:54:59;4.10;;;4.00;;
22460;SDS011;11397;48.410;11.468;2023-08-12T01:00:03;4.20;;;4.10;;
22460;SDS011;11397;48.410;11.468;2023-08-12T01:05:05;4.40;;;4.30;;
22460;SDS011;11397;48.410;11.468;2023-08-12T01:10:09;4.20;;;4.10;;
22460;SDS011;11397;48.410;11.468;2023-08-12T01:15:17;4.15;;;4.05;;
22460;SDS011;11397;48.410;11.468;2023-08-12T01:20:23;4.10;;;4.00;;
22460;SDS011;11397;48.410;11.468;2023-08-12T01:25:28;4.15;;;4.05;;
22460;SDS011;11397;48.410;11.468;2023-08-12T01:30:30;4.10;;;4.00;;
22460;SDS011;11397;48.410;11.468;2023-08-12T01:35:33;4.18;;;4.07;;
22460;SDS011;11397;48.410;11.468;2023-08-12T01:40:38;3.97;;;3.88;;
22460;SDS011;11397;48.410;11.468;2023-08-12T01:45:41;4.30;;;4.10;;
22460;SDS011;11397;48.410;11.468;2023-08-12T01:50:44;4.13;;;4.03;;
22460;SDS011;11397;48.410;11.468;2023-08-12T01:55:50;4.25;;;4.15;;
22460;SDS011;11397;48.410;11.468;2023-08-12T02:00:52;4.30;;;4.20;;
22460;SDS011;11397;48.410;11.468;2023-08-12T02:05:54;4.07;;;3.97;;
22460;SDS011;11397;48.410;11.468;2023-08-12T02:10:57;3.78;;;3.67;;
22460;SDS011;11397;48.410;11.468;2023-08-12T02:15:59;3.88;;;3.78;;
22460;SDS011;11397;48.410;11.468;2023-08-12T02:21:00;4.38;;;4.28;;
22460;SDS011;11397;48.410;11.468;2023-08-12T02:26:04;4.10;;;4.00;;
22460;SDS011;11397;48.410;11.468;2023-08-12T02:31:06;4.50;;;4.40;;
22460;SDS011;11397;48.410;11.468;2023-08-12T02:36:07;3.92;;;3.83;;
22460;SDS011;11397;48.410;11.468;2023-08-12T02:41:11;3.88;;;3.78;;
22460;SDS011;11397;48.410;11.468;2023-08-12T02:46:12;4.15;;;4.05;;
22460;SDS011;11397;48.410;11.468;2023-08-12T02:51:16;4.50;;;4.40;;
22460;SDS011;11397;48.410;11.468;2023-08-12T02:56:19;4.22;;;4.13;;
22460;SDS011;11397;48.410;11.468;2023-08-12T03:01:21;3.80;;;3.70;;
22460;SDS011;11397;48.410;11.468;2023-08-12T03:06:23;4.00;;;3.90;;
22460;SDS011;11397;48.410;11.468;2023-08-12T03:11:26;4.18;;;4.07;;
22460;SDS011;11397;48.410;11.468;2023-08-12T03:16:30;4.03;;;3.92;;
22460;SDS011;11397;48.410;11.468;2023-08-12T03:21:32;4.20;;;4.10;;
22460;SDS011;11397;48.410;11.468;2023-08-12T03:26:36;4.20;;;4.10;;
22460;SDS011;11397;48.410;11.468;2023-08-12T03:31:39;4.18;;;4.07;;
22460;SDS011;11397;48.410;11.468;2023-08-12T03:36:41;4.35;;;4.25;;
22460;SDS011;11397;48.410;11.468;2023-08-12T03:41:46;4.07;;;3.97;;
22460;SDS011;11397;48.410;11.468;2023-08-12T03:46:49;4.05;;;3.95;;
22460;SDS011;11397;48.410;11.468;2023-08-12T03:51:51;4.57;;;4.40;;
22460;SDS011;11397;48.410;11.468;2023-08-12T03:56:54;3.90;;;3.80;;
22460;SDS011;11397;48.410;11.468;2023-08-12T04:01:57;4.13;;;4.03;;
22460;SDS011;11397;48.410;11.468;2023-08-12T04:07:00;4.15;;;4.05;;
22460;SDS011;11397;48.410;11.468;2023-08-12T04:12:04;3.97;;;3.88;;
22460;SDS011;11397;48.410;11.468;2023-08-12T04:17:06;4.10;;;4.00;;
22460;SDS011;11397;48.410;11.468;2023-08-12T04:22:08;3.58;;;3.47;;
22460;SDS011;11397;48.410;11.468;2023-08-12T04:27:11;3.25;;;3.15;;
22460;SDS011;11397;48.410;11.468;2023-08-12T04:32:13;3.88;;;3.78;;
22460;SDS011;11397;48.410;11.468;2023-08-12T04:37:15;3.72;;;3.63;;
22460;SDS011;11397;48.410;11.468;2023-08-12T04:42:19;3.95;;;3.85;;
22460;SDS011;11397;48.410;11.468;2023-08-12T04:47:21;3.63;;;3.53;;
22460;SDS011;11397;48.410;11.468;2023-08-12T04:52:24;3.75;;;3.65;;
22460;SDS011;11397;48.410;11.468;2023-08-12T04:57:28;3.65;;;3.55;;
22460;SDS011;11397;48.410;11.468;2023-08-12T05:02:30;3.85;;;3.75;;
22460;SDS011;11397;48.410;11.468;2023-08-12T05:07:32;3.60;;;3.50;;
22460;SDS011;11397;48.410;11.468;2023-08-12T05:12:36;3.90;;;3.80;;
22460;SDS011;11397;48.410;11.468;2023-08-12T05:17:38;3.88;;;3.78;;
22460;SDS011;11397;48.410;11.468;2023-08-12T05:22:42;3.92;;;3.83;;
22460;SDS011;11397;48.410;11.468;2023-08-12T05:27:45;3.83;;;3.72;;
22460;SDS011;11397;48.410;11.468;2023-08-12T05:32:47;3.35;;;3.25;;
22460;SDS011;11397;48.410;11.468;2023-08-12T05:37:49;3.83;;;3.72;;
22460;SDS011;11397;48.410;11.468;2023-08-12T05:42:52;3.70;;;3.60;;
22460;SDS011;11397;48.410;11.468;2023-08-12T05:47:54;3.60;;;3.50;;
22460;SDS011;11397;48.410;11.468;2023-08-12T05:52:56;3.60;;;3.50;;
22460;SDS011;11397;48.410;11.468;2023-08-12T05:57:59;3.67;;;3.58;;
22460;SDS011;11397;48.410;11.468;2023-08-12T06:03:01;3.97;;;3.88;;
22460;SDS011;11397;48.410;11.468;2023-08-12T06:08:03;3.40;;;3.30;;
22460;SDS011;11397;48.410;11.468;2023-08-12T06:13:07;3.47;;;3.38;;
22460;SDS011;11397;48.410;11.468;2023-08-12T06:18:09;3.83;;;3.72;;
22460;SDS011;11397;48.410;11.468;2023-08-12T06:23:10;3.70;;;3.60;;
22460;SDS011;11397;48.410;11.468;2023-08-12T06:28:14;3.63;;;3.53;;
22460;SDS011;11397;48.410;11.468;2023-08-12T06:33:16;3.53;;;3.42;;
22460;SDS011;11397;48.410;11.468;2023-08-12T06:38:18;3.80;;;3.70;;
22460;SDS011;11397;48.410;11.468;2023-08-12T06:43:21;3.90;;;3.80;;
22460;SDS011;11397;48.410;11.468;2023-08-12T06:48:23;3.80;;;3.70;;
22460;SDS011;11397;48.410;11.468;2023-08-12T06:53:26;3.83;;;3.72;;
22460;SDS011;11397;48.410;11.468;2023-08-12T06:58:29;3.92;;;3.83;;
22460;SDS011;11397;48.410;11.468;2023-08-12T07:03:31;3.88;;;3.78;;
22460;SDS011;11397;48.410;11.468;2023-08-12T07:08:34;4.00;;;3.90;;
22460;SDS011;11397;48.410;11.468;2023-08-12T07:13:37;3.72;;;3.63;;
22460;SDS011;11397;48.410;11.468;2023-08-12T07:18:39;4.03;;;3.92;;
22460;SDS011;11397;48.410;11.468;2023-08-12T07:23:41;4.20;;;4.10;;
22460;SDS011;11397;48.410;11.468;2023-08-12T07:28:45;4.13;;;4.03;;
22460;SDS011;11397;48.410;11.468;2023-08-12T07:33:47;4.25;;;4.15;;
22460;SDS011;11397;48.410;11.468;2023-08-12T07:38:49;4.10;;;4.00;;
22460;SDS011;11397;48.410;11.468;2023-08-12T07:43:53;4.07;;;3.88;;
22460;SDS011;11397;48.410;11.468;2023-08-12T07:48:55;3.55;;;3.45;;
22460;SDS011;11397;48.410;11.468;2023-08-12T07:53:57;4.20;;;4.00;;
22460;SDS011;11397;48.410;11.468;2023-08-12T07:59:01;3.50;;;3.40;;
22460;SDS011;11397;48.410;11.468;2023-08-12T08:04:03;4.07;;;3.97;;
22460;SDS011;11397;48.410;11.468;2023-08-12T08:09:05;3.30;;;3.20;;
22460;SDS011;11397;48.410;11.468;2023-08-12T08:14:08;3.75;;;3.65;;
22460;SDS011;11397;48.410;11.468;2023-08-12T08:19:10;3.72;;;3.63;;
22460;SDS011;11397;48.410;11.468;2023-08-12T08:24:11;3.80;;;3.70;;
22460;SDS011;11397;48.410;11.468;2023-08-12T08:29:15;3.70;;;3.60;;
22460;SDS011;11397;48.410;11.468;2023-08-12T08:34:17;4.00;;;3.88;;
22460;SDS011;11397;48.410;11.468;2023-08-12T08:39:18;3.40;;;3.30;;
22460;SDS011;11397;48.410;11.468;2023-08-12T08:44:23;3.75;;;3.65;;
22460;SDS011;11397;48.410;11.468;2023-08-12T08:49:25;3.60;;;3.50;;
22460;SDS011;11397;48.410;11.468;2023-08-12T08:54:27;3.80;;;3.70;;
22460;SDS011;11397;48.410;11.468;2023-08-12T08:59:30;3.90;;;3.80;;
22460;SDS011;11397;48.410;11.468;2023-08-12T09:04:32;3.63;;;3.53;;
22460;SDS011;11397;48.410;11.468;2023-08-12T09:09:34;3.53;;;3.42;;
22460;SDS011;11397;48.410;11.468;2023-08-12T09:14:38;3.70;;;3.60;;
22460;SDS011;11397;48.410;11.468;2023-08-12T09:19:40;3.63;;;3.53;;
22460;SDS011;11397;48.410;11.468;2023-08-12T09:24:42;3.53;;;3.42;;
22460;SDS011;11397;48.410;11.468;2023-08-12T09:29:45;3.55;;;3.45;;
22460;SDS011;11397;48.410;11.468;2023-08-12T09:34:47;3.72;;;3.63;;
22460;SDS011;11397;48.410;11.468;2023-08-12T09:39:50;3.20;;;3.10;;
22460;SDS011;11397;48.410;11.468;2023-08-12T09:44:55;3.80;;;3.70;;
22460;SDS011;11397;48.410;11.468;2023-08-12T09:49:57;3.50;;;3.40;;
22460;SDS011;11397;48.410;11.468;2023-08-12T09:55:00;3.67;;;3.58;;
22460;SDS011;11397;48.410;11.468;2023-08-12T10:00:07;3.75;;;3.65;;
22460;SDS011;11397;48.410;11.468;2023-08-12T10:05:15;3.75;;;3.65;;
22460;SDS011;11397;48.410;11.468;2023-08-12T10:10:17;3.60;;;3.50;;
22460;SDS011;11397;48.410;11.468;2023-08-12T10:15:21;3.50;;;3.40;;
22460;SDS011;11397;48.410;11.468;2023-08-12T10:20:24;3.58;;;3.47;;
22460;SDS011;11397;48.410;11.468;2023-08-12T10:25:26;4.00;;;3.80;;
22460;SDS011;11397;48.410;11.468;2023-08-12T10:30:34;3.63;;;3.53;;
22460;SDS011;11397;48.410;11.468;2023-08-12T10:35:43;3.83;;;3.72;;
22460;SDS011;11397;48.410;11.468;2023-08-12T10:40:44;3.60;;;3.50;;
22460;SDS011;11397;48.410;11.468;2023-08-12T10:45:51;4.00;;;3.78;;
22460;SDS011;11397;48.410;11.468;2023-08-12T10:50:54;3.97;;;3.88;;
22460;SDS011;11397;48.410;11.468;2023-08-12T10:55:57;3.88;;;3.78;;
22460;SDS011;11397;48.410;11.468;2023-08-12T11:01:00;3.65;;;3.55;;
22460;SDS011;11397;48.410;11.468;2023-08-12T11:06:02;3.67;;;3.58;;
22460;SDS011;11397;48.410;11.468;2023-08-12T11:11:18;3.72;;;3.63;;
22460;SDS011;11397;48.410;11.468;2023-08-12T11:16:21;3.88;;;3.78;;
22460;SDS011;11397;48.410;11.468;2023-08-12T11:21:33;3.88;;;3.78;;
22460;SDS011;11397;48.410;11.468;2023-08-12T11:26:37;3.72;;;3.63;;
22460;SDS011;11397;48.410;11.468;2023-08-12T11:31:40;4.10;;;4.00;;
22460;SDS011;11397;48.410;11.468;2023-08-12T11:36:42;3.70;;;3.60;;
22460;SDS011;11397;48.410;11.468;2023-08-12T11:41:44;3.63;;;3.53;;
22460;SDS011;11397;48.410;11.468;2023-08-12T11:46:47;3.70;;;3.60;;
22460;SDS011;11397;48.410;11.468;2023-08-12T11:51:49;3.47;;;3.38;;
22460;SDS011;11397;48.410;11.468;2023-08-12T11:56:51;3.40;;;3.30;;
22460;SDS011;11397;48.410;11.468;2023-08-12T12:01:55;3.70;;;3.60;;
22460;SDS011;11397;48.410;11.468;2023-08-12T12:06:57;3.80;;;3.70;;
22460;SDS011;11397;48.410;11.468;2023-08-12T12:12:00;3.72;;;3.63;;
22460;SDS011;11397;48.410;11.468;2023-08-12T12:17:06;3.60;;;3.50;;
22460;SDS011;11397;48.410;11.468;2023-08-12T12:22:08;3.50;;;3.40;;
22460;SDS011;11397;48.410;11.468;2023-08-12T12:27:10;3.47;;;3.38;;
22460;SDS011;11397;48.410;11.468;2023-08-12T12:32:14;3.60;;;3.50;;
22460;SDS011;11397;48.410;11.468;2023-08-12T12:37:16;3.28;;;3.17;;
22460;SDS011;11397;48.410;11.468;2023-08-12T12:42:17;3.50;;;3.40;;
22460;SDS011;11397;48.410;11.468;2023-08-12T12:47:21;3.58;;;3.47;;
22460;SDS011;11397;48.410;11.468;2023-08-12T12:52:23;3.50;;;3.40;;
22460;SDS011;11397;48.410;11.468;2023-08-12T12:57:26;3.60;;;3.50;;
22460;SDS011;11397;48.410;11.468;2023-08-12T13:02:29;3.60;;;3.50;;
22460;SDS011;11397;48.410;11.468;2023-08-12T13:07:31;3.78;;;3.67;;
22460;SDS011;11397;48.410;11.468;2023-08-12T13:12:33;3.72;;;3.63;;
22460;SDS011;11397;48.410;11.468;2023-08-12T13:17:37;3.10;;;3.00;;
22460;SDS011;11397;48.410;11.468;2023-08-12T13:22:39;3.60;;;3.50;;
22460;SDS011;11397;48.410;11.468;2023-08-12T13:27:41;3.40;;;3.30;;
22460;SDS011;11397;48.410;11.468;2023-08-12T13:32:45;3.55;;;3.45;;
22460;SDS011;11397;48.410;11.468;2023-08-12T13:37:48;3.10;;;3.00;;
22460;SDS011;11397;48.410;11.468;2023-08-12T13:42:50;3.40;;;3.30;;
22460;SDS011;11397;48.410;11.468;2023-08-12T13:47:53;3.33;;;3.22;;
22460;SDS011;11397;48.410;11.468;2023-08-12T13:52:55;3.20;;;3.10;;
22460;SDS011;11397;48.410;11.468;2023-08-12T13:57:57;3.50;;;3.40;;
22460;SDS011;11397;48.410;11.468;2023-08-12T14:03:01;3.55;;;3.45;;
22460;SDS011;11397;48.410;11.468;2023-08-12T14:08:02;3.58;;;3.47;;
22460;SDS011;11397;48.410;11.468;2023-08-12T14:13:04;3.50;;;3.40;;
22460;SDS011;11397;48.410;11.468;2023-08-12T14:18:08;3.38;;;3.28;;
22460;SDS011;11397;48.410;11.468;2023-08-12T14:23:10;3.40;;;3.30;;
22460;SDS011;11397;48.410;11.468;2023-08-12T14:28:13;3.22;;;3.13;;
22460;SDS011;11397;48.410;11.468;2023-08-12T14:33:16;3.50;;;3.40;;
22460;SDS011;11397;48.410;11.468;2023-08-12T14:38:18;3.30;;;3.20;;
22460;SDS011;11397;48.410;11.468;2023-08-12T14:43:20;3.40;;;3.30;;
22460;SDS011;11397;48.410;11.468;2023-08-12T14:48:23;3.50;;;3.40;;
22460;SDS011;11397;48.410;11.468;2023-08-12T14:53:24;3.15;;;3.05;;
22460;SDS011;11397;48.410;11.468;2023-08-12T14:58:26;3.30;;;3.20;;
22460;SDS011;11397;48.410;11.468;2023-08-12T15:03:29;3.35;;;3.25;;
22460;SDS011;11397;48.410;11.468;2023-08-12T15:08:31;3.20;;;3.10;;
22460;SDS011;11397;48.410;11.468;2023-08-12T15:13:33;3.22;;;3.13;;
22460;SDS011;11397;48.410;11.468;2023-08-12T15:18:37;3.50;;;3.40;;
22460;SDS011;11397;48.410;11.468;2023-08-12T15:23:39;3.30;;;3.20;;
22460;SDS011;11397;48.410;11.468;2023-08-12T15:28:41;3.45;;;3.35;;
22460;SDS011;11397;48.410;11.468;2023-08-12T15:33:45;3.20;;;3.10;;
22460;SDS011;11397;48.410;11.468;2023-08-12T15:38:47;3.35;;;3.25;;
22460;SDS011;11397;48.410;11.468;2023-08-12T15:43:49;3.35;;;3.25;;
22460;SDS011;11397;48.410;11.468;2023-08-12T15:48:52;3.22;;;3.13;;
22460;SDS011;11397;48.410;11.468;2023-08-12T15:53:54;3.30;;;3.20;;
22460;SDS011;11397;48.410;11.468;2023-08-12T15:58:56;3.30;;;3.20;;
22460;SDS011;11397;48.410;11.468;2023-08-12T16:03:59;3.30;;;3.20;;
22460;SDS011;11397;48.410;11.468;2023-08-12T16:09:02;3.00;;;2.90;;
22460;SDS011;11397;48.410;11.468;2023-08-12T16:14:04;3.10;;;3.00;;
22460;SDS011;11397;48.410;11.468;2023-08-12T16:19:08;3.35;;;3.25;;
22460;SDS011;11397;48.410;11.468;2023-08-12T16:24:10;3.30;;;3.20;;
22460;SDS011;11397;48.410;11.468;2023-08-12T16:29:12;3.10;;;3.00;;
22460;SDS011;11397;48.410;11.468;2023-08-12T16:34:15;3.25;;;3.15;;
22460;SDS011;11397;48.410;11.468;2023-08-12T16:39:18;3.30;;;3.20;;
22460;SDS011;11397;48.410;11.468;2023-08-12T16:44:20;3.30;;;3.20;;
22460;SDS011;11397;48.410;11.468;2023-08-12T16:49:24;3.20;;;3.10;;
22460;SDS011;11397;48.410;11.468;2023-08-12T16:54:26;2.95;;;2.85;;
22460;SDS011;11397;48.410;11.468;2023-08-12T16:59:28;3.30;;;3.20;;
22460;SDS011;11397;48.410;11.468;2023-08-12T17:04:32;3.15;;;3.05;;
22460;SDS011;11397;48.410;11.468;2023-08-12T17:09:34;2.92;;;2.83;;
22460;SDS011;11397;48.410;11.468;2023-08-12T17:14:37;3.08;;;2.97;;
22460;SDS011;11397;48.410;11.468;2023-08-12T17:19:41;3.20;;;3.10;;
22460;SDS011;11397;48.410;11.468;2023-08-12T17:24:44;3.28;;;3.17;;
22460;SDS011;11397;48.410;11.468;2023-08-12T17:29:47;3.35;;;3.25;;
22460;SDS011;11397;48.410;11.468;2023-08-12T17:34:51;3.05;;;2.95;;
22460;SDS011;11397;48.410;11.468;2023-08-12T17:39:53;3.38;;;3.28;;
22460;SDS011;11397;48.410;11.468;2023-08-12T17:44:56;3.15;;;3.05;;
22460;SDS011;11397;48.410;11.468;2023-08-12T17:50:00;3.40;;;3.30;;
22460;SDS011;11397;48.410;11.468;2023-08-12T17:55:06;3.15;;;3.05;;
22460;SDS011;11397;48.410;11.468;2023-08-12T18:00:13;3.30;;;3.20;;
22460;SDS011;11397;48.410;11.468;2023-08-12T18:05:19;3.15;;;3.05;;
22460;SDS011;11397;48.410;11.468;2023-08-12T18:10:21;3.17;;;3.08;;
22460;SDS011;11397;48.410;11.468;2023-08-12T18:15:24;3.20;;;3.10;;
22460;SDS011;11397;48.410;11.468;2023-08-12T18:20:27;3.20;;;3.10;;
22460;SDS011;11397;48.410;11.468;2023-08-12T18:25:30;3.17;;;3.08;;
22460;SDS011;11397;48.410;11.468;2023-08-12T18:30:32;3.20;;;3.10;;
22460;SDS011;11397;48.410;11.468;2023-08-12T18:35:35;3.20;;;3.10;;
22460;SDS011;11397;48.410;11.468;2023-08-12T18:40:38;3.20;;;3.10;;
22460;SDS011;11397;48.410;11.468;2023-08-12T18:45:40;3.15;;;3.05;;
22460;SDS011;11397;48.410;11.468;2023-08-12T18:50:43;2.55;;;2.55;;
22460;SDS011;11397;48.410;11.468;2023-08-12T18:55:45;3.55;;;3.22;;
22460;SDS011;11397;48.410;11.468;2023-08-12T19:00:47;2.95;;;2.85;;
22460;SDS011;11397;48.410;11.468;2023-08-12T19:05:56;3.20;;;3.10;;
22460;SDS011;11397;48.410;11.468;2023-08-12T19:10:59;3.10;;;3.00;;
22460;SDS011;11397;48.410;11.468;2023-08-12T19:16:01;3.30;;;3.20;;
22460;SDS011;11397;48.410;11.468;2023-08-12T19:21:04;3.00;;;2.90;;
22460;SDS011;11397;48.410;11.468;2023-08-12T19:26:07;2.70;;;2.70;;
22460;SDS011;11397;48.410;11.468;2023-08-12T19:31:08;3.10;;;3.00;;
22460;SDS011;11397;48.410;11.468;2023-08-12T19:36:12;3.10;;;3.00;;
22460;SDS011;11397;48.410;11.468;2023-08-12T19:41:14;3.00;;;2.90;;
22460;SDS011;11397;48.410;11.468;2023-08-12T19:46:16;3.08;;;2.97;;
22460;SDS011;11397;48.410;11.468;2023-08-12T19:51:29;3.10;;;3.00;;
22460;SDS011;11397;48.410;11.468;2023-08-12T19:56:30;3.20;;;3.10;;
22460;SDS011;11397;48.410;11.468;2023-08-12T20:01:32;3.20;;;3.10;;
22460;SDS011;11397;48.410;11.468;2023-08-12T20:06:36;3.30;;;3.20;;
22460;SDS011;11397;48.410;11.468;2023-08-12T20:11:38;3.17;;;3.08;;
22460;SDS011;11397;48.410;11.468;2023-08-12T20:16:39;3.20;;;3.10;;
22460;SDS011;11397;48.410;11.468;2023-08-12T20:21:43;3.42;;;3.33;;
22460;SDS011;11397;48.410;11.468;2023-08-12T20:26:45;3.13;;;3.03;;
22460;SDS011;11397;48.410;11.468;2023-08-12T20:31:47;3.30;;;3.20;;
22460;SDS011;11397;48.410;11.468;2023-08-12T20:36:50;3.50;;;3.40;;
22460;SDS011;11397;48.410;11.468;2023-08-12T20:41:52;3.33;;;3.22;;
22460;SDS011;11397;48.410;11.468;2023-08-12T20:46:54;3.67;;;3.58;;
22460;SDS011;11397;48.410;11.468;2023-08-12T20:51:57;3.40;;;3.30;;
22460;SDS011;11397;48.410;11.468;2023-08-12T20:57:00;3.50;;;3.40;;
22460;SDS011;11397;48.410;11.468;2023-08-12T21:02:02;3.05;;;2.95;;
22460;SDS011;11397;48.410;11.468;2023-08-12T21:07:05;3.40;;;3.30;;
22460;SDS011;11397;48.410;11.468;2023-08-12T21:12:07;3.60;;;3.50;;
22460;SDS011;11397;48.410;11.468;2023-08-12T21:17:11;3.50;;;3.40;;
22460;SDS011;11397;48.410;11.468;2023-08-12T21:22:14;3.30;;;3.20;;
22460;SDS011;11397;48.410;11.468;2023-08-12T21:27:16;3.80;;;3.70;;
22460;SDS011;11397;48.410;11.468;2023-08-12T21:32:17;3.65;;;3.55;;
22460;SDS011;11397;48.410;11.468;2023-08-12T21:37:21;3.45;;;3.35;;
22460;SDS011;11397;48.410;11.468;2023-08-12T21:42:22;3.22;;;3.13;;
22460;SDS011;11397;48.410;11.468;2023-08-12T21:47:24;3.63;;;3.53;;
22460;SDS011;11397;48.410;11.468;2023-08-12T21:52:27;3.47;;;3.38;;
22460;SDS011;11397;48.410;11.468;2023-08-12T21:57:29;3.50;;;3.40;;
22460;SDS011;11397;48.410;11.468;2023-08-12T22:02:31;3.28;;;3.17;;
22460;SDS011;11397;48.410;11.468;2023-08-12T22:07:34;3.45;;;3.35;;
22460;SDS011;11397;48.410;11.468;2023-08-12T22:12:36;3.50;;;3.40;;
22460;SDS011;11397;48.410;11.468;2023-08-12T22:17:38;3.78;;;3.67;;
22460;SDS011;11397;48.410;11.468;2023-08-12T22:22:43;3.58;;;3.47;;
22460;SDS011;11397;48.410;11.468;2023-08-12T22:27:45;3.70;;;3.60;;
22460;SDS011;11397;48.410;11.468;2023-08-12T22:32:47;3.80;;;3.70;;
22460;SDS011;11397;48.410;11.468;2023-08-12T22:37:50;3.53;;;3.42;;
22460;SDS011;11397;48.410;11.468;2023-08-12T22:42:52;3.72;;;3.63;;
22460;SDS011;11397;48.410;11.468;2023-08-12T22:47:53;3.78;;;3.67;;
22460;SDS011;11397;48.410;11.468;2023-08-12T22:52:56;3.60;;;3.50;;
22460;SDS011;11397;48.410;11.468;2023-08-12T22:57:59;3.70;;;3.60;;
22460;SDS011;11397;48.410;11.468;2023-08-12T23:03:00;3.70;;;3.60;;
22460;SDS011;11397;48.410;11.468;2023-08-12T23:08:04;3.80;;;3.70;;
22460;SDS011;11397;48.410;11.468;2023-08-12T23:13:06;3.53;;;3.42;;
22460;SDS011;11397;48.410;11.468;2023-08-12T23:18:08;3.67;;;3.58;;
22460;SDS011;11397;48.410;11.468;2023-08-12T23:23:11;3.75;;;3.65;;
22460;SDS011;11397;48.410;11.468;2023-08-12T23:28:13;3.55;;;3.45;;
22460;SDS011;11397;48.410;11.468;2023-08-12T23:33:14;3.40;;;3.30;;
22460;SDS011;11397;48.410;11.468;2023-08-12T23:38:17;3.90;;;3.80;;
22460;SDS011;11397;48.410;11.468;2023-08-12T23:43:19;3.63;;;3.53;;
22460;SDS011;11397;48.410;11.468;2023-08-12T23:48:21;3.90;;;3.80;;
22460;SDS011;11397;48.410;11.468;2023-08-12T23:53:25;3.60;;;3.50;;
22460;SDS011;11397;48.410;11.468;2023-08-12T23:58:27;3.70;;;3.60;;
